Latest Coastal Weather Observations for Learmonth

IDW60701

Issued at 3:52 pm WST Saturday 5 September 2015 (issued every 10 minutes, with the page automatically refreshed every 10 minutes)

About coastal observations | Map of coastal stations | Coastal observations for WA | Marine services | Other Formats
Station Details ID: 005007 Name: LEARMONTH AIRPORT Lat: -22.24 Lon: 114.10 Height: 5.0 m
Data from the previous 72 hours. | See also: Recent months at Learmonth
Date/Time
WST
Temp

°C
Wind Pressure Rain
since 9am
mm
Weather Cloud Vis
km
Sea
Height
m
Swell
Dir
 
Speed
knots
Gust
knots
hPa Trend Height
m
Period
s
Dir
05/03:30pm 29.8 SW 14 19 1017.3 - 0.0 - - 10 - - - -
05/03:00pm 30.3 SW 13 18 1017.0 - 0.0 - - 10 - - - -
05/02:30pm 30.3 S 10 16 1017.3 - 0.0 - - 10 - - - -
05/02:00pm 29.5 S 5 9 1017.6 - 0.0 - - 10 - - - -
05/01:30pm 29.1 SE 7 10 1017.9 - 0.0 - - 10 - - - -
05/01:00pm 28.7 S 8 11 1018.4 - 0.0 - - 10 - - - -
05/12:30pm 27.8 SSE 10 15 1018.8 - 0.0 - - 10 - - - -
05/12:00pm 26.5 SSE 10 14 1019.1 - 0.0 - - 10 - - - -
05/11:30am 25.9 SSE 9 13 1019.7 - 0.0 - - 10 - - - -
05/11:00am 24.7 SSE 9 15 1020.1 - 0.0 - - 10 - - - -
05/10:30am 23.9 SSE 13 17 1020.5 - 0.0 - - 10 - - - -
05/10:00am 22.7 S 12 15 1020.8 - 0.0 - - 10 - - - -
05/09:30am 21.3 SSE 10 13 1020.9 - 0.0 - - 10 - - - -
05/09:00am 20.0 S 9 11 1021.0 - 0.0 - - 10 - - - -
05/08:30am 18.1 S 7 9 1020.9 - 0.0 - - 10 - - - -
05/08:00am 16.4 SSW 6 9 1020.6 - 0.0 - - 10 - - - -
05/07:30am 14.6 SW 5 6 1020.4 - 0.0 - - 10 - - - -
05/07:00am 13.3 SSW 4 5 1020.3 - 0.0 - - 10 - - - -
05/06:30am 13.2 SW 4 4 1020.1 - 0.0 - - 10 - - - -
05/06:00am 13.3 SW 5 6 1019.8 - 0.0 - - 10 - - - -
05/05:30am 13.0 SW 7 8 1019.6 - 0.0 - - 10 - - - -
05/05:00am 13.2 SW 7 8 1019.3 - 0.0 - - 10 - - - -
05/04:30am 13.4 SW 7 9 1019.0 - 0.0 - - 10 - - - -
05/04:00am 13.4 SW 8 9 1018.9 - 0.0 - - 10 - - - -
05/03:30am 13.8 SW 8 9 1019.0 - 0.0 - - 10 - - - -
05/03:00am 13.6 SW 8 9 1019.1 - 0.0 - - 10 - - - -
05/02:30am 13.4 SSW 7 8 1019.3 - 0.0 - - 10 - - - -
05/02:00am 14.0 SSW 7 9 1019.3 - 0.0 - - 10 - - - -
05/01:30am 14.8 SSW 8 9 1019.4 - 0.0 - - 10 - - - -
05/01:00am 15.5 SSW 8 10 1019.5 - 0.0 - - 10 - - - -
05/12:30am 16.0 SSW 9 11 1019.6 - 0.0 - - 10 - - - -
05/12:00am 16.4 SSW 9 11 1019.6 - 0.0 - - 10 - - - -
 
Date/Time
WST
Temp

°C
Wind Pressure Rain
since 9am
mm
Weather Cloud Vis
km
Sea
Height
m
Swell
Dir
 
Speed
knots
Gust
knots
hPa Trend Height
m
Period
s
Dir
04/11:30pm 15.5 SW 7 8 1019.6 - 0.0 - - 10 - - - -
04/11:00pm 15.7 SW 8 10 1019.6 - 0.0 - - 10 - - - -
04/10:30pm 16.1 SW 8 8 1019.5 - 0.0 - - 10 - - - -
04/10:00pm 17.4 SW 8 10 1019.5 - 0.0 - - 10 - - - -
04/09:30pm 17.8 SW 10 12 1019.5 - 0.0 - - 10 - - - -
04/09:00pm 18.0 SW 10 13 1019.5 - 0.0 - - - - - - -
04/08:30pm 18.0 SW 9 12 1019.4 - 0.0 - - 10 - - - -
04/08:00pm 18.6 WSW 10 13 1019.3 - 0.0 - - 10 - - - -
04/07:30pm 18.8 SW 11 14 1019.1 - 0.0 - - 10 - - - -
04/07:00pm 18.6 SSW 9 11 1018.8 - 0.0 - - 10 - - - -
04/06:30pm 19.8 SSW 11 14 1018.3 - 0.0 - - 10 - - - -
04/06:00pm 21.4 SSW 12 14 1017.8 - 0.0 - - 10 - - - -
04/05:30pm 23.2 SSW 12 15 1017.3 - 0.0 - - 10 - - - -
04/05:00pm 24.6 SSW 11 15 1017.1 - 0.0 - - 10 - - - -
04/04:30pm 24.3 NE 5 8 1016.8 - 0.0 - - 10 - - - -
04/04:00pm 24.4 NE 8 15 1016.8 - 0.0 - - 10 - - - -
04/03:30pm 24.9 NE 9 14 1016.6 - 0.0 - - 10 - - - -
04/03:00pm 25.4 N 7 10 1016.8 - 0.0 - - 10 - - - -
04/02:30pm 24.5 NNE 10 13 1017.0 - 0.0 - - 10 - - - -
04/02:00pm 26.6 WNW 9 13 1017.3 - 0.0 - - 10 - - - -
04/01:30pm 26.6 SSW 7 11 1017.4 - 0.0 - - 10 - - - -
04/01:00pm 26.1 WSW 7 14 1017.8 - 0.0 - - 10 - - - -
04/12:30pm 25.2 SW 8 13 1018.1 - 0.0 - - 10 - - - -
04/12:00pm 23.4 E 10 13 1018.5 - 0.0 - - 10 - - - -
04/11:30am 23.7 S 11 13 1019.0 - 0.0 - - 10 - - - -
04/11:00am 22.5 SE 10 15 1019.5 - 0.0 - - 10 - - - -
04/10:30am 21.7 SSE 7 11 1019.8 - 0.0 - - 10 - - - -
04/10:00am 20.8 S 10 14 1020.0 - 0.0 - - 10 - - - -
04/09:30am 19.6 S 10 13 1020.2 - 0.0 - - 10 - - - -
04/09:00am 18.7 SSE 9 12 1020.0 - 0.0 - - 10 - - - -
04/08:30am 17.2 S 6 9 1019.9 - 0.0 - - 10 - - - -
04/08:00am 15.1 SSW 5 7 1019.5 - 0.0 - - 10 - - - -
04/07:30am 13.2 WSW 6 8 1019.5 - 0.0 - - 10 - - - -
04/07:00am 10.6 WSW 6 7 1019.3 - 0.0 - - 10 - - - -
04/06:30am 10.0 WSW 7 8 1019.0 - 0.0 - - 10 - - - -
04/06:00am 9.9 WSW 7 8 1018.4 - 0.0 - - 10 - - - -
04/05:30am 9.7 SW 7 8 1018.3 - 0.0 - - 10 - - - -
04/05:00am 9.1 SW 7 8 1018.0 - 0.0 - - 10 - - - -
04/04:30am 9.1 SSW 9 10 1017.8 - 0.0 - - 10 - - - -
04/04:00am 9.8 S 9 10 1017.8 - 0.0 - - 10 - - - -
04/03:30am 9.8 S 9 10 1017.9 - 0.0 - - 10 - - - -
04/03:00am 9.3 SSW 7 10 1017.8 - 0.0 - - 10 - - - -
04/02:30am 9.9 S 8 8 1017.9 - 0.0 - - 10 - - - -
04/02:00am 10.4 SSW 5 5 1017.8 - 0.0 - - 10 - - - -
04/01:30am 12.2 SW 6 7 1018.2 - 0.0 - - 10 - - - -
04/01:00am 12.8 WSW 6 7 1018.4 - 0.0 - - 10 - - - -
04/12:30am 12.6 SW 6 7 1018.6 - 0.0 - - 10 - - - -
04/12:00am 13.4 SW 8 9 1018.6 - 0.0 - - 10 - - - -
 
Date/Time
WST
Temp

°C
Wind Pressure Rain
since 9am
mm
Weather Cloud Vis
km
Sea
Height
m
Swell
Dir
 
Speed
knots
Gust
knots
hPa Trend Height
m
Period
s
Dir
03/11:30pm 13.8 WSW 7 8 1019.0 - 0.0 - - 10 - - - -
03/11:00pm 14.2 WSW 7 8 1019.1 - 0.0 - - 10 - - - -
03/10:30pm 15.0 WSW 6 8 1019.4 - 0.0 - - 10 - - - -
03/10:00pm 15.3 WSW 8 9 1019.6 - 0.0 - - 10 - - - -
03/09:30pm 15.0 WSW 7 9 1019.6 - 0.0 - - 10 - - - -
03/09:00pm 15.1 WSW 8 9 1019.5 - 0.0 - - 10 - - - -
03/08:30pm 15.5 WSW 7 9 1019.6 - 0.0 - - 10 - - - -
03/08:00pm 16.2 SW 9 10 1019.4 - 0.0 - - 10 - - - -
03/07:30pm 16.7 SW 9 11 1019.0 - 0.0 - - 10 - - - -
03/07:00pm 16.6 SSW 9 10 1018.6 - 0.0 - - 10 - - - -
03/06:30pm 18.3 SSW 9 11 1018.2 - 0.0 - - 10 - - - -
03/06:00pm 20.5 SSW 11 13 1017.8 - 0.0 - - 10 - - - -
03/05:30pm 22.0 SSW 12 16 1017.5 - 0.0 - - 10 - - - -
03/05:00pm 23.5 WSW 11 14 1017.4 - 0.0 - - 10 - - - -
03/04:30pm 23.9 WSW 13 17 1017.2 - 0.0 - - 10 - - - -
03/04:00pm 24.3 WSW 12 17 1017.2 - 0.0 - - 10 - - - -
03/03:30pm 24.6 SW 12 17 1017.0 - 0.0 - - 10 - - - -
03/03:00pm 25.3 WSW 12 17 1017.0 R 0.0 Fine Clear 30 - - - -
03/02:30pm 25.9 WSW 12 18 1017.2 - 0.0 - - 10 - - - -
03/02:00pm 25.6 SW 11 16 1017.3 - 0.0 - - 10 - - - -
03/01:30pm 25.6 WSW 12 17 1017.6 - 0.0 - - 10 - - - -
03/01:00pm 25.4 WSW 10 17 1018.0 - 0.0 - - 10 - - - -
03/12:30pm 25.0 SSW 9 14 1018.4 - 0.0 - Mostly clear 10 - - - -
03/12:00pm 24.1 SSW 12 17 1018.6 R 0.0 Fine Mostly clear 30 - - - -
03/11:30am 23.1 SW 11 17 1019.1 - 0.0 - Mostly clear 10 - - - -
03/11:00am 22.9 SW 13 17 1019.4 - 0.0 - Mostly clear 10 - - - -
03/10:30am 22.5 SW 12 18 1019.7 - 0.0 - Mostly clear 10 - - - -
03/10:00am 21.7 SW 12 15 1019.8 - 0.0 - Mostly clear 10 - - - -
03/09:30am 20.7 SSW 13 17 1019.6 - 0.0 - Mostly clear 10 - - - -
03/09:00am 18.7 SSW 12 15 1019.5 R 0.0 Fine Mostly clear 30 - - - -
03/08:30am 17.0 SSW 10 13 1019.5 - 0.0 - - 10 - - - -
03/08:00am 14.8 SSW 7 9 1019.2 - 0.0 - - 10 - - - -
03/07:30am 12.3 WSW 6 7 1018.9 - 0.0 - - 10 - - - -
03/07:00am 9.8 SW 6 7 1018.7 - 0.0 - - 10 - - - -
03/06:30am 8.6 SW 8 9 1018.4 - 0.0 - - 10 - - - -
03/06:00am 8.6 SW 7 8 1018.0 F 0.0 Fine Clear 30 - - - -
03/05:30am 9.6 SW 6 7 1017.9 - 0.0 - - 10 - - - -
03/05:00am 10.1 SW 5 7 1017.8 - 0.0 - - 10 - - - -
03/04:30am 9.6 WSW 7 8 1017.6 - 0.0 - - 10 - - - -
03/04:00am 9.7 SW 6 7 1017.6 - 0.0 - - 10 - - - -
03/03:30am 10.0 WSW 6 7 1018.0 - 0.0 - - 10 - - - -
03/03:00am 9.9 SW 6 8 1018.0 - 0.0 - - 10 - - - -
03/02:30am 10.8 SW 9 10 1018.3 - 0.0 - - 10 - - - -
03/02:00am 11.3 SW 9 10 1018.5 - 0.0 - - 10 - - - -
03/01:30am 10.4 SW 9 10 1018.8 - 0.0 - - 10 - - - -
03/01:00am 9.8 SW 9 10 1018.9 - 0.0 - - 10 - - - -
03/12:30am 9.6 SSW 8 9 1019.2 - 0.0 - - 10 - - - -
03/12:00am 9.9 SW 7 8 1019.1 - 0.0 - - 10 - - - -
 
Date/Time
WST
Temp

°C
Wind Pressure Rain
since 9am
mm
Weather Cloud Vis
km
Sea
Height
m
Swell
Dir
 
Speed
knots
Gust
knots
hPa Trend Height
m
Period
s
Dir
02/11:30pm 11.3 SW 7 8 1019.2 - 0.0 - - 10 - - - -
02/11:00pm 13.0 SW 8 9 1019.1 - 0.0 - - 10 - - - -
02/10:30pm 13.5 WSW 8 10 1019.1 - 0.0 - - 10 - - - -
02/10:00pm 12.4 SW 7 8 1019.3 - 0.0 - - 10 - - - -
02/09:30pm 14.2 SW 8 9 1019.2 - 0.0 - - 10 - - - -
02/09:00pm 16.0 SW 10 12 1018.8 - 0.0 - - 10 - - - -
02/08:30pm 16.0 SW 8 10 1018.7 - 0.0 - - 10 - - - -
02/08:00pm 17.4 WSW 10 14 1018.3 - 0.0 - - 10 - - - -
02/07:30pm 17.8 SW 10 13 1018.1 - 0.0 - - 10 - - - -
02/07:00pm 18.4 SW 9 12 1017.8 - 0.0 - - 10 - - - -
02/06:30pm 20.1 SW 10 13 1017.2 - 0.0 - - 10 - - - -
02/06:00pm 21.8 SW 11 14 1016.8 - 0.0 - - 10 - - - -
02/05:30pm 23.3 WSW 13 17 1016.6 - 0.0 - - 10 - - - -
02/05:00pm 24.6 WSW 13 16 1016.4 - 0.0 - - 10 - - - -
02/04:30pm 25.6 WSW 12 17 1016.0 - 0.0 - - 10 - - - -
02/04:00pm 25.6 N 8 11 1015.9 - 0.0 - - 10 - - - -

Other Formats:

Comma delimited format used in spreadsheet applications
http://www.bom.gov.au/fwo/IDW60701/IDW60701.94302.axf

JavaScript Object Notation format (JSON) in row-major order
http://www.bom.gov.au/fwo/IDW60701/IDW60701.94302.json